Time;durP1;ratioP1;P1;durP2;ratioP2;P2;SDS_P1;SDS_P2;PMS_P1;PMS_P2;Temp;Humidity;BMP_temperature;BMP_pressure;BME280_temperature;BME280_humidity;BME280_pressure;Samples;Min_cycle;Max_cycle;Signal;HPM_P1;HPM_P2
2022/12/10 00:02:25;;;;;;;20.33;9.95;;;;;;;3.80;63.10;96055.94;4850579;29;20213;-76
2022/12/10 00:04:50;;;;;;;16.58;8.88;;;;;;;3.82;62.76;96058.28;4846802;29;20178;-76
2022/12/10 00:07:15;;;;;;;16.55;8.93;;;;;;;3.75;62.50;96053.25;4846783;29;20146;-76
2022/12/10 00:09:41;;;;;;;28.52;13.13;;;;;;;3.83;63.67;96060.63;4846475;29;20336;-76
2022/12/10 00:12:06;;;;;;;20.33;10.25;;;;;;;3.78;63.07;96057.94;4815053;29;20252;-77
2022/12/10 00:14:31;;;;;;;18.83;10.27;;;;;;;3.66;63.45;96050.25;4846672;28;20215;-76
2022/12/10 00:16:57;;;;;;;20.08;9.93;;;;;;;3.77;63.21;96056.41;4846508;28;20352;-76
2022/12/10 00:19:22;;;;;;;17.90;9.80;;;;;;;3.86;63.28;96062.75;4846295;29;20275;-76
2022/12/10 00:21:47;;;;;;;20.38;9.70;;;;;;;3.85;63.21;96060.41;4830266;29;20190;-76
2022/12/10 00:24:13;;;;;;;18.48;9.10;;;;;;;3.75;63.31;96055.81;4846372;29;20597;-77
2022/12/10 00:26:39;;;;;;;17.15;9.23;;;;;;;3.78;63.15;96057.94;4815172;29;20217;-76
2022/12/10 00:29:06;;;;;;;19.80;10.40;;;;;;;3.77;63.12;96056.41;4830650;29;20263;-76
2022/12/10 00:31:33;;;;;;;17.98;8.98;;;;;;;3.82;62.86;96053.13;4814701;29;20247;-76
2022/12/10 00:34:01;;;;;;;17.92;9.35;;;;;;;3.74;63.12;96052.47;4830693;29;20201;-76
2022/12/10 00:36:30;;;;;;;19.00;9.13;;;;;;;3.85;62.59;96057.81;4830530;29;20193;-76
2022/12/10 00:38:56;;;;;;;16.45;8.55;;;;;;;3.86;63.06;96059.41;4846090;29;20303;-76
2022/12/10 00:41:21;;;;;;;16.52;9.13;;;;;;;3.76;63.29;96052.25;4845374;29;20220;-76
2022/12/10 00:43:47;;;;;;;16.98;9.88;;;;;;;3.86;63.21;96054.25;4830299;29;20209;-76
2022/12/10 00:46:14;;;;;;;18.20;8.98;;;;;;;3.98;62.33;96055.00;4830380;29;20174;-76
2022/12/10 00:48:40;;;;;;;21.08;10.43;;;;;;;3.86;63.42;96054.25;4845391;29;20194;-76
2022/12/10 00:51:08;;;;;;;17.60;8.98;;;;;;;3.79;63.07;96053.56;4838870;29;20196;-76
2022/12/10 00:53:35;;;;;;;15.93;8.57;;;;;;;3.70;63.62;96048.00;4864895;29;20196;-76
2022/12/10 00:56:03;;;;;;;19.73;10.43;;;;;;;3.70;62.59;96056.53;4864752;28;20212;-76
2022/12/10 00:58:30;;;;;;;19.00;8.93;;;;;;;3.77;62.99;96051.25;4864727;29;20204;-77
2022/12/10 01:01:07;;;;;;;18.30;9.27;;;;;;;3.82;63.44;96053.94;4848694;29;20282;-76
2022/12/10 01:03:32;;;;;;;17.90;9.30;;;;;;;3.66;64.01;96054.63;4848937;29;20791;-76
2022/12/10 01:06:07;;;;;;;18.27;9.20;;;;;;;3.46;64.08;96055.00;4864811;29;20173;-76
2022/12/10 01:08:33;;;;;;;19.08;9.75;;;;;;;3.35;63.73;96065.06;4864949;29;20706;-76
2022/12/10 01:11:17;;;;;;;21.90;9.98;;;;;;;3.40;64.11;96069.56;4862460;29;20197;-77
2022/12/10 01:13:44;;;;;;;17.63;8.95;;;;;;;3.68;63.38;96070.63;4849123;29;20204;-76
2022/12/10 01:16:11;;;;;;;17.55;8.73;;;;;;;3.64;63.70;96077.25;4850642;29;20213;-76
2022/12/10 01:18:36;;;;;;;19.23;9.48;;;;;;;3.49;63.56;96073.34;4849037;29;20650;-77
2022/12/10 01:21:07;;;;;;;23.35;9.75;;;;;;;3.52;63.44;96074.69;4864260;29;20205;-77
2022/12/10 01:23:34;;;;;;;17.90;9.95;;;;;;;3.44;63.98;96088.66;4864724;28;20454;-76
2022/12/10 01:26:04;;;;;;;18.90;9.48;;;;;;;3.53;64.16;96086.53;4848736;29;20326;-77
2022/12/10 01:28:31;;;;;;;20.27;10.30;;;;;;;3.61;63.38;96093.91;4848652;29;20575;-76
2022/12/10 01:31:00;;;;;;;19.20;9.23;;;;;;;3.68;63.37;96094.56;4864050;28;20208;-76
2022/12/10 01:33:25;;;;;;;18.35;9.38;;;;;;;3.58;63.73;96091.00;4864327;29;20255;-76
2022/12/10 01:35:51;;;;;;;16.90;9.00;;;;;;;3.68;62.61;96086.84;4848671;29;20290;-76
2022/12/10 01:38:16;;;;;;;18.73;9.05;;;;;;;3.66;63.35;96094.00;4848540;29;20204;-77
2022/12/10 01:40:42;;;;;;;17.80;8.98;;;;;;;3.62;62.81;96095.50;4864214;29;20665;-77
2022/12/10 01:43:13;;;;;;;16.38;9.10;;;;;;;3.77;62.65;96087.31;4864454;28;20703;-76
2022/12/10 01:45:38;;;;;;;20.90;9.35;;;;;;;3.38;63.56;96095.50;4848363;29;20284;-77
2022/12/10 01:48:03;;;;;;;19.33;10.43;;;;;;;3.49;63.77;96093.91;4845494;29;20209;-76
2022/12/10 01:50:29;;;;;;;18.15;8.95;;;;;;;3.59;63.67;96102.88;4835631;29;20663;-76
2022/12/10 01:52:54;;;;;;;20.25;9.63;;;;;;;3.58;63.77;96098.72;4864437;28;20665;-76
2022/12/10 01:55:47;;;;;;;18.98;9.55;;;;;;;3.63;63.89;96097.03;4867879;29;20292;-77
2022/12/10 01:58:14;;;;;;;18.35;9.43;;;;;;;3.38;64.14;96105.03;4853855;29;20290;-76
2022/12/10 02:00:45;;;;;;;19.85;9.07;;;;;;;3.58;63.08;96104.66;4854847;29;20622;-76
2022/12/10 02:03:14;;;;;;;17.13;8.95;;;;;;;3.49;63.60;96101.63;4867141;29;20208;-76
2022/12/10 02:05:42;;;;;;;18.73;8.85;;;;;;;3.56;63.60;96101.53;4867622;29;20300;-76
2022/12/10 02:08:25;;;;;;;21.48;9.40;;;;;;;3.51;63.33;96104.78;4867855;29;20189;-76
2022/12/10 02:11:16;;;;;;;18.25;9.48;;;;;;;3.61;63.77;96101.63;4851662;29;20201;-76
2022/12/10 02:14:02;;;;;;;19.05;9.25;;;;;;;3.78;63.52;96108.66;4867473;29;20272;-76
2022/12/10 02:16:34;;;;;;;21.17;10.40;;;;;;;3.51;63.84;96104.78;4867991;29;20252;-76
2022/12/10 02:19:43;;;;;;;18.65;9.40;;;;;;;3.43;63.97;96110.28;4852191;29;20291;-76
2022/12/10 02:22:09;;;;;;;15.23;8.68;;;;;;;3.29;64.04;96106.34;4851473;29;20255;-76
2022/12/10 02:24:36;;;;;;;19.52;9.38;;;;;;;3.44;64.18;96098.19;4867434;29;20635;-75
2022/12/10 02:27:22;;;;;;;18.70;9.75;;;;;;;3.45;63.66;96105.69;4867920;28;20169;-76
2022/12/10 02:29:48;;;;;;;19.65;9.98;;;;;;;3.46;63.72;96103.88;4867254;29;20655;-75
2022/12/10 02:32:18;;;;;;;18.40;9.13;;;;;;;3.59;64.13;96097.72;4866701;29;20323;-76
2022/12/10 02:34:48;;;;;;;17.25;9.00;;;;;;;3.64;63.52;96100.41;4867449;29;20361;-76
2022/12/10 02:37:29;;;;;;;19.00;9.70;;;;;;;3.81;63.20;96090.97;4867277;29;20215;-76
2022/12/10 02:39:58;;;;;;;20.58;8.82;;;;;;;3.65;63.03;96100.19;4866924;29;20255;-76
2022/12/10 02:42:24;;;;;;;18.75;9.23;;;;;;;3.63;63.23;96102.19;4866205;29;20205;-76
2022/12/10 02:44:50;;;;;;;21.10;10.65;;;;;;;3.62;63.13;96097.28;4857481;29;20170;-76
2022/12/10 02:47:16;;;;;;;20.40;9.32;;;;;;;3.57;63.36;96100.53;4848216;29;20766;-75
2022/12/10 02:49:42;;;;;;;22.25;10.50;;;;;;;3.48;63.32;96087.22;4832198;29;20178;-76
2022/12/10 02:52:15;;;;;;;24.15;11.73;;;;;;;3.63;63.45;96096.25;4848797;29;20347;-76
2022/12/10 02:54:46;;;;;;;20.98;10.35;;;;;;;3.50;63.82;96081.84;4867077;29;20375;-76
2022/12/10 02:57:16;;;;;;;18.60;9.00;;;;;;;3.43;63.68;96081.97;4850904;29;20361;-77
2022/12/10 03:00:06;;;;;;;18.90;9.95;;;;;;;3.51;64.05;96084.22;4866862;29;20200;-76
2022/12/10 03:03:17;;;;;;;19.13;9.48;;;;;;;3.74;63.49;96090.31;4850672;29;20252;-76
2022/12/10 03:05:47;;;;;;;22.73;11.15;;;;;;;3.41;64.01;96088.34;4850337;29;20232;-76
2022/12/10 03:08:27;;;;;;;20.40;10.00;;;;;;;3.57;63.83;96085.09;4866463;29;20170;-76
2022/12/10 03:11:15;;;;;;;21.13;9.68;;;;;;;3.45;64.61;96079.94;4866335;29;20255;-76
2022/12/10 03:13:40;;;;;;;20.77;10.20;;;;;;;3.39;64.70;96080.84;4866837;29;20200;-76
2022/12/10 03:16:06;;;;;;;18.95;9.10;;;;;;;3.50;64.24;96081.84;4866393;28;20220;-76
2022/12/10 03:18:34;;;;;;;19.83;10.35;;;;;;;3.56;63.81;96086.09;4866437;29;20669;-76
2022/12/10 03:21:03;;;;;;;19.13;9.57;;;;;;;3.53;64.03;96089.91;4865940;28;20312;-76
2022/12/10 03:23:29;;;;;;;22.38;10.13;;;;;;;3.25;65.00;96082.88;4866740;29;20170;-77
2022/12/10 03:25:55;;;;;;;20.23;10.60;;;;;;;3.43;64.17;96087.13;4866443;29;20215;-75
2022/12/10 03:28:21;;;;;;;21.80;10.65;;;;;;;3.31;64.46;96094.84;4866528;29;20274;-76
2022/12/10 03:30:47;;;;;;;22.42;10.88;;;;;;;3.47;64.30;96090.78;4865751;28;20216;-77
2022/12/10 03:33:13;;;;;;;21.33;10.35;;;;;;;3.36;64.10;96091.59;4866204;29;20281;-76
2022/12/10 03:35:39;;;;;;;20.73;9.82;;;;;;;3.40;64.59;96091.94;4850333;29;20295;-76
2022/12/10 03:38:04;;;;;;;19.40;10.25;;;;;;;3.35;64.07;96085.66;4852033;29;20192;-76
2022/12/10 03:40:31;;;;;;;20.38;9.43;;;;;;;3.28;64.08;96087.56;4866138;29;20203;-76
2022/12/10 03:42:56;;;;;;;21.10;10.20;;;;;;;3.39;63.87;96080.84;4865736;29;20220;-76
2022/12/10 03:45:21;;;;;;;20.52;10.15;;;;;;;3.44;63.85;96083.53;4852167;29;20182;-76
2022/12/10 03:47:49;;;;;;;21.88;10.15;;;;;;;3.37;64.12;96093.94;4833437;29;20662;-76
2022/12/10 03:50:14;;;;;;;19.58;9.73;;;;;;;3.44;64.18;96080.19;4833252;29;20221;-76
2022/12/10 03:52:40;;;;;;;19.83;10.45;;;;;;;3.48;63.86;96089.00;4865507;29;20182;-76
2022/12/10 03:55:06;;;;;;;21.73;10.10;;;;;;;3.48;64.02;96092.38;4849776;29;20216;-76
2022/12/10 03:57:32;;;;;;;23.38;11.52;;;;;;;3.38;64.38;96095.50;4865444;29;20279;-76
2022/12/10 03:59:57;;;;;;;19.80;10.18;;;;;;;3.42;63.92;96100.97;4865678;28;20291;-76
2022/12/10 04:02:23;;;;;;;19.67;8.95;;;;;;;3.29;63.71;96098.63;4851299;29;20896;-76
2022/12/10 04:04:48;;;;;;;20.80;9.98;;;;;;;3.48;63.64;96107.00;4865613;29;20722;-75
2022/12/10 04:07:13;;;;;;;20.95;10.20;;;;;;;3.39;63.57;96106.56;4851423;29;20181;-76
2022/12/10 04:09:39;;;;;;;21.90;10.38;;;;;;;3.42;63.93;96100.22;4849522;29;20291;-76
2022/12/10 04:12:04;;;;;;;22.45;10.55;;;;;;;3.17;63.88;96103.78;4865372;29;20192;-76
2022/12/10 04:17:14;;;;;;;16.63;8.88;;;;;;;3.18;64.51;96108.69;4865210;28;20255;-77
2022/12/10 04:19:39;;;;;;;18.50;9.07;;;;;;;3.41;63.86;96107.16;4865413;29;20288;-76
2022/12/10 04:27:36;;;;;;;20.60;10.70;;;;;;;3.31;64.00;96114.66;4863365;29;20264;-77
2022/12/10 04:30:04;;;;;;;23.92;10.68;;;;;;;3.42;63.51;96119.00;4865158;29;20205;-76
2022/12/10 04:32:30;;;;;;;19.05;9.15;;;;;;;3.48;62.90;96122.44;4833127;29;20373;-76
2022/12/10 04:34:55;;;;;;;17.90;8.68;;;;;;;3.18;63.64;96120.78;4849647;29;20275;-77
2022/12/10 04:37:21;;;;;;;17.50;8.75;;;;;;;3.28;63.31;96123.59;4851376;29;20279;-76
2022/12/10 04:39:47;;;;;;;16.60;8.60;;;;;;;3.42;63.03;96116.41;4865278;29;20260;-76
2022/12/10 04:42:12;;;;;;;19.13;9.65;;;;;;;3.30;63.31;96121.56;4864535;28;20199;-76
2022/12/10 04:44:38;;;;;;;20.13;9.77;;;;;;;3.47;62.90;96133.78;4857112;29;20277;-76
2022/12/10 04:47:05;;;;;;;16.67;9.25;;;;;;;3.51;62.99;96127.16;4830541;29;20201;-76
2022/12/10 04:49:31;;;;;;;17.88;8.90;;;;;;;3.47;62.62;96121.69;4830742;29;20205;-77
2022/12/10 04:51:56;;;;;;;17.27;8.93;;;;;;;3.42;62.75;96121.56;4861376;29;20219;-76
2022/12/10 04:54:22;;;;;;;16.55;8.07;;;;;;;3.51;62.55;96125.38;4864901;29;20744;-76
2022/12/10 04:56:47;;;;;;;21.30;9.73;;;;;;;3.55;62.21;96126.50;4864867;29;20211;-76
2022/12/10 04:59:14;;;;;;;20.02;9.50;;;;;;;3.44;62.09;96127.25;4864723;29;20796;-76
2022/12/10 05:01:39;;;;;;;19.23;10.35;;;;;;;3.50;62.30;96123.03;4848900;29;20208;-76
2022/12/10 05:04:07;;;;;;;16.95;8.23;;;;;;;3.40;62.21;96121.00;4851030;29;20265;-76
2022/12/10 05:06:33;;;;;;;15.52;8.35;;;;;;;3.36;63.04;96122.47;4849377;29;20374;-76
2022/12/10 05:08:59;;;;;;;21.15;10.10;;;;;;;3.30;62.98;96125.94;4864795;29;20253;-76
2022/12/10 05:11:27;;;;;;;36.95;15.52;;;;;;;3.37;62.94;96129.94;4864306;29;20283;-76
2022/12/10 05:13:53;;;;;;;16.60;8.43;;;;;;;3.25;63.23;96130.97;4864898;29;20193;-77
2022/12/10 05:16:20;;;;;;;25.42;12.23;;;;;;;3.07;63.49;96135.22;4864929;29;20215;-76
2022/12/10 05:18:45;;;;;;;19.75;9.60;;;;;;;3.21;62.75;96140.91;4865202;29;20200;-75
2022/12/10 05:21:14;;;;;;;35.83;16.25;;;;;;;3.21;63.83;96140.16;4848643;29;20173;-77
2022/12/10 05:23:42;;;;;;;23.85;11.40;;;;;;;3.24;62.72;96142.25;4864993;29;20216;-76
2022/12/10 05:26:10;;;;;;;19.83;10.77;;;;;;;3.17;63.25;96144.94;4833780;29;20203;-76
2022/12/10 05:28:43;;;;;;;17.23;8.80;;;;;;;3.13;63.48;96143.81;4866884;28;20196;-76
2022/12/10 05:31:14;;;;;;;16.15;8.07;;;;;;;3.03;63.17;96149.50;4868216;29;20356;-77
2022/12/10 05:33:40;;;;;;;15.25;8.00;;;;;;;3.18;62.69;96149.84;4852672;29;20203;-76
2022/12/10 05:36:05;;;;;;;15.63;8.38;;;;;;;3.09;63.05;96142.69;4868636;29;20189;-77
2022/12/10 05:38:32;;;;;;;14.80;7.60;;;;;;;3.16;62.96;96153.66;4852745;29;20347;-77
2022/12/10 05:41:04;;;;;;;16.98;9.23;;;;;;;2.86;63.69;96148.56;4852027;29;20286;-76
2022/12/10 05:43:30;;;;;;;22.52;11.90;;;;;;;3.14;62.54;96153.09;4868298;29;20283;-76
2022/12/10 05:46:04;;;;;;;19.20;8.98;;;;;;;3.26;62.94;96153.13;4834458;29;20228;-76
2022/12/10 05:48:30;;;;;;;15.75;7.82;;;;;;;3.05;63.08;96159.56;4833728;29;20600;-76
2022/12/10 05:50:56;;;;;;;15.68;7.57;;;;;;;2.77;64.03;96154.03;4825131;29;20401;-76
2022/12/10 05:53:22;;;;;;;18.30;9.25;;;;;;;3.05;63.01;96157.78;4852407;29;20215;-77
2022/12/10 05:55:47;;;;;;;15.38;7.82;;;;;;;3.05;62.74;96157.78;4868169;28;20173;-76
2022/12/10 05:58:13;;;;;;;16.73;8.18;;;;;;;2.92;63.82;96163.91;4853888;29;20185;-76
2022/12/10 06:00:40;;;;;;;16.73;7.95;;;;;;;3.01;63.05;96156.66;4850993;29;20631;-77
2022/12/10 06:03:06;;;;;;;16.88;9.10;;;;;;;3.03;62.82;96159.78;4851416;29;20265;-76
2022/12/10 06:05:37;;;;;;;20.58;9.05;;;;;;;3.28;62.72;96171.69;4851142;29;20299;-75
2022/12/10 06:08:02;;;;;;;20.42;9.65;;;;;;;3.15;62.81;96168.31;4866848;29;20339;-76
2022/12/10 06:10:28;;;;;;;30.73;13.63;;;;;;;3.33;62.97;96175.16;4866374;29;20304;-75
2022/12/10 06:12:53;;;;;;;23.23;10.65;;;;;;;3.23;63.17;96177.50;4850867;29;20939;-76
2022/12/10 06:15:19;;;;;;;19.42;10.68;;;;;;;3.28;63.41;96181.97;4866702;29;20687;-76
2022/12/10 06:17:44;;;;;;;19.08;10.07;;;;;;;3.26;63.30;96181.41;4866863;29;20284;-76
2022/12/10 06:20:10;;;;;;;24.58;12.77;;;;;;;3.24;62.58;96188.56;4850775;29;20714;-76
2022/12/10 06:22:35;;;;;;;19.70;10.82;;;;;;;3.27;62.72;96185.53;4866012;28;20195;-76
2022/12/10 06:25:01;;;;;;;18.52;9.80;;;;;;;3.41;62.82;96191.25;4866097;29;20264;-75
2022/12/10 06:27:26;;;;;;;20.17;10.98;;;;;;;3.47;62.84;96193.72;4866588;29;20219;-76
2022/12/10 06:29:51;;;;;;;20.80;9.93;;;;;;;3.32;62.19;96195.94;4865914;29;20209;-76
2022/12/10 06:32:17;;;;;;;19.30;10.30;;;;;;;3.36;62.43;96191.94;4851967;29;20301;-76
2022/12/10 06:34:42;;;;;;;20.95;11.40;;;;;;;3.25;63.13;96196.06;4866367;29;20173;-76
2022/12/10 06:37:07;;;;;;;25.20;11.70;;;;;;;3.13;63.19;96203.75;4866178;28;20154;-76
2022/12/10 06:39:33;;;;;;;19.83;9.77;;;;;;;2.92;63.84;96201.69;4866363;28;20292;-76
2022/12/10 06:41:58;;;;;;;24.92;11.00;;;;;;;3.29;63.08;96204.09;4849525;29;20256;-76
2022/12/10 06:44:23;;;;;;;25.90;14.35;;;;;;;3.26;63.13;96207.16;4846146;29;20221;-76
2022/12/10 06:46:49;;;;;;;21.70;12.68;;;;;;;3.34;63.18;96199.88;4847480;28;20281;-75
2022/12/10 06:49:14;;;;;;;38.00;17.75;;;;;;;3.11;63.52;96212.69;4847965;29;20294;-76
2022/12/10 06:51:40;;;;;;;36.17;17.70;;;;;;;3.33;62.71;96208.59;4860886;28;20311;-76
2022/12/10 06:54:05;;;;;;;31.25;16.63;;;;;;;3.26;63.39;96220.00;4866832;28;20306;-76
2022/12/10 06:56:30;;;;;;;24.33;12.02;;;;;;;3.33;63.09;96216.31;4866830;29;20686;-76
2022/12/10 06:58:56;;;;;;;17.55;8.70;;;;;;;3.31;62.72;96214.97;4866546;29;20712;-76
2022/12/10 07:01:25;;;;;;;21.77;11.00;;;;;;;3.33;62.78;96218.13;4866409;29;20200;-75
2022/12/10 07:03:56;;;;;;;16.90;9.40;;;;;;;3.51;62.08;96217.22;4866268;29;20193;-76
2022/12/10 07:06:23;;;;;;;23.00;12.13;;;;;;;3.29;62.98;96227.25;4850758;29;20256;-76
2022/12/10 07:08:49;;;;;;;21.95;11.50;;;;;;;3.33;62.90;96228.41;4850755;29;20265;-77
2022/12/10 07:11:17;;;;;;;19.83;9.98;;;;;;;3.26;63.00;96228.50;4866239;29;20248;-76
2022/12/10 07:13:42;;;;;;;19.92;10.10;;;;;;;3.21;63.19;96225.81;4850791;29;20207;-76
2022/12/10 07:16:29;;;;;;;33.22;14.50;;;;;;;3.50;62.58;96234.47;4866302;29;20203;-76
2022/12/10 07:18:55;;;;;;;20.52;9.98;;;;;;;3.14;63.24;96238.75;4866564;29;20252;-76
2022/12/10 07:21:32;;;;;;;17.38;9.40;;;;;;;3.29;63.14;96240.13;4865849;29;20216;-75
2022/12/10 07:24:00;;;;;;;21.75;9.90;;;;;;;3.26;63.16;96231.06;4866164;28;20259;-76
2022/12/10 07:26:28;;;;;;;20.15;9.52;;;;;;;3.47;62.00;96237.47;4866058;29;20165;-76
2022/12/10 07:28:53;;;;;;;22.58;10.20;;;;;;;3.33;62.95;96241.25;4866187;29;20212;-76
2022/12/10 07:31:21;;;;;;;17.00;8.60;;;;;;;3.43;61.75;96240.72;4865761;29;20109;-76
2022/12/10 07:33:46;;;;;;;21.77;10.57;;;;;;;3.37;62.39;96247.53;4850223;29;20677;-76
2022/12/10 07:36:12;;;;;;;21.23;10.85;;;;;;;3.44;62.92;96243.06;4866075;28;20216;-75
2022/12/10 07:38:38;;;;;;;16.10;8.60;;;;;;;3.50;61.97;96255.06;4866044;29;20381;-75
2022/12/10 07:41:09;;;;;;;19.67;9.75;;;;;;;3.68;61.45;96259.31;4865399;29;20177;-76
2022/12/10 07:43:36;;;;;;;22.85;11.15;;;;;;;3.44;62.77;96266.22;4865809;29;20234;-76
2022/12/10 07:46:10;;;;;;;19.80;10.48;;;;;;;3.35;62.78;96265.75;4847098;29;20221;-76
2022/12/10 07:48:37;;;;;;;20.77;10.30;;;;;;;3.40;62.58;96265.09;4831209;29;20779;-75
2022/12/10 07:51:02;;;;;;;19.90;10.55;;;;;;;3.27;62.63;96273.00;4854434;28;20212;-76
2022/12/10 07:53:28;;;;;;;16.67;9.45;;;;;;;3.45;61.86;96278.09;4865579;29;20699;-76
2022/12/10 07:55:53;;;;;;;17.17;9.48;;;;;;;3.10;62.56;96268.50;4851623;29;20211;-76
2022/12/10 07:58:19;;;;;;;20.30;10.32;;;;;;;3.27;62.24;96271.22;4851703;29;20243;-76
2022/12/10 08:00:44;;;;;;;17.77;9.48;;;;;;;3.17;62.47;96273.53;4851426;29;20252;-76
2022/12/10 08:03:10;;;;;;;16.67;8.35;;;;;;;3.41;61.73;96281.31;4849672;29;20215;-76
2022/12/10 08:05:35;;;;;;;19.00;10.10;;;;;;;3.29;61.65;96276.13;4865629;29;20363;-76
2022/12/10 08:08:01;;;;;;;20.15;9.73;;;;;;;3.28;61.78;96270.22;4865789;29;20216;-76
2022/12/10 08:10:26;;;;;;;19.45;8.95;;;;;;;3.40;61.43;96277.19;4865175;29;20228;-76
2022/12/10 08:12:51;;;;;;;22.25;9.98;;;;;;;3.35;61.96;96272.69;4851364;29;20212;-76
2022/12/10 08:15:17;;;;;;;24.48;12.25;;;;;;;3.43;61.92;96282.69;4865426;29;20352;-76
2022/12/10 08:17:42;;;;;;;18.55;10.10;;;;;;;3.48;61.52;96287.16;4865180;28;20266;-76
2022/12/10 08:20:08;;;;;;;19.17;10.60;;;;;;;3.46;61.80;96286.59;4865340;29;20626;-76
2022/12/10 08:22:34;;;;;;;21.30;10.77;;;;;;;3.49;61.77;96292.06;4849239;29;20259;-76
2022/12/10 08:24:59;;;;;;;20.50;10.65;;;;;;;3.31;62.67;96281.88;4865195;29;20209;-75
2022/12/10 08:27:25;;;;;;;23.10;10.95;;;;;;;3.51;61.86;96300.38;4865185;28;20794;-76
2022/12/10 08:29:50;;;;;;;19.73;10.18;;;;;;;3.50;61.38;96295.47;4849119;29;20259;-76
2022/12/10 08:32:15;;;;;;;20.48;10.50;;;;;;;3.48;62.00;96300.81;4864880;29;20241;-76
2022/12/10 08:34:41;;;;;;;18.88;10.07;;;;;;;3.26;61.51;96297.97;4865269;29;20173;-76
2022/12/10 08:37:06;;;;;;;16.90;8.23;;;;;;;3.34;61.25;96299.41;4865184;28;20196;-76
2022/12/10 08:39:32;;;;;;;15.55;8.45;;;;;;;3.43;61.34;96295.53;4865082;29;20188;-76
2022/12/10 08:41:57;;;;;;;15.90;8.40;;;;;;;3.64;60.87;96308.91;4864272;29;20215;-76
2022/12/10 08:44:22;;;;;;;15.15;8.20;;;;;;;3.49;60.35;96307.50;4858924;28;20269;-76
2022/12/10 08:46:48;;;;;;;13.73;7.90;;;;;;;3.57;59.71;96309.00;4832208;29;20354;-75
2022/12/10 08:49:13;;;;;;;14.27;7.55;;;;;;;3.48;60.99;96305.16;4830337;29;20200;-76
2022/12/10 08:51:39;;;;;;;15.85;7.40;;;;;;;3.46;60.62;96312.31;4858650;29;20280;-76
2022/12/10 08:54:04;;;;;;;14.65;7.05;;;;;;;3.66;59.15;96312.81;4864829;29;20223;-75
2022/12/10 08:56:30;;;;;;;17.80;8.13;;;;;;;3.68;59.68;96313.38;4833101;29;20642;-76
2022/12/10 08:58:56;;;;;;;13.38;6.95;;;;;;;3.68;59.99;96322.91;4864524;28;20208;-76
2022/12/10 09:01:21;;;;;;;14.60;6.60;;;;;;;3.53;59.94;96308.66;4864645;28;20212;-75
2022/12/10 09:03:47;;;;;;;12.43;7.13;;;;;;;3.59;58.93;96316.50;4833157;29;20189;-77
2022/12/10 09:06:15;;;;;;;15.52;6.95;;;;;;;3.41;60.30;96317.34;4864896;29;20638;-76
2022/12/10 09:08:40;;;;;;;12.75;6.35;;;;;;;3.52;59.83;96322.53;4848913;29;20161;-76
2022/12/10 09:11:11;;;;;;;13.75;6.72;;;;;;;3.58;60.10;96325.22;4864336;29;20299;-75
2022/12/10 09:13:36;;;;;;;13.07;7.43;;;;;;;3.67;59.57;96318.78;4864698;29;20280;-76
2022/12/10 09:16:02;;;;;;;12.10;5.57;;;;;;;3.50;59.24;96319.38;4865070;29;20276;-76
2022/12/10 09:18:31;;;;;;;11.50;5.90;;;;;;;3.45;60.33;96327.00;4864779;29;20331;-76
2022/12/10 09:20:56;;;;;;;11.88;6.47;;;;;;;3.62;59.92;96324.56;4864151;29;20362;-76
2022/12/10 09:23:22;;;;;;;12.93;6.25;;;;;;;2.95;60.93;96327.25;4864870;28;20109;-76
2022/12/10 09:25:47;;;;;;;13.05;7.28;;;;;;;3.12;60.94;96327.41;4864431;29;20663;-76
2022/12/10 09:28:13;;;;;;;12.15;6.55;;;;;;;3.33;59.77;96331.31;4848736;29;20271;-76
2022/12/10 09:30:38;;;;;;;14.27;6.40;;;;;;;3.22;59.78;96324.31;4864167;29;20353;-76
2022/12/10 09:33:03;;;;;;;13.77;7.30;;;;;;;3.58;59.40;96327.78;4864394;29;20200;-75
2022/12/10 09:35:29;;;;;;;14.98;6.47;;;;;;;3.73;59.26;96328.94;4848600;29;20427;-76
2022/12/10 09:37:54;;;;;;;11.68;7.00;;;;;;;3.61;59.42;96335.84;4850558;29;20789;-76
2022/12/10 09:40:36;;;;;;;12.13;6.82;;;;;;;3.90;59.61;96336.81;4863712;28;20216;-76
2022/12/10 09:43:31;;;;;;;17.85;8.07;;;;;;;4.00;59.31;96328.53;4864305;29;20208;-76
2022/12/10 09:46:08;;;;;;;11.73;6.28;;;;;;;4.15;58.68;96335.03;4846303;29;20629;-76
2022/12/10 09:48:55;;;;;;;14.15;7.30;;;;;;;4.37;58.04;96343.78;4829754;29;20209;-76
2022/12/10 09:51:24;;;;;;;11.93;6.13;;;;;;;4.18;58.07;96334.59;4855951;29;20291;-76
2022/12/10 09:53:58;;;;;;;13.20;6.47;;;;;;;4.15;58.07;96340.19;4864203;29;20305;-76
2022/12/10 09:56:31;;;;;;;11.83;6.83;;;;;;;4.43;57.16;96336.94;4848127;29;20232;-76
2022/12/10 09:58:59;;;;;;;12.30;6.80;;;;;;;4.23;56.97;96343.25;4864316;29;20287;-77
2022/12/10 10:01:27;;;;;;;13.68;6.80;;;;;;;4.22;57.28;96346.81;4863837;28;20612;-75
2022/12/10 10:03:53;;;;;;;12.43;6.50;;;;;;;4.06;57.40;96347.47;4864157;28;20335;-76
2022/12/10 10:06:18;;;;;;;10.40;7.15;;;;;;;4.13;56.64;96343.00;4864075;29;20288;-75
2022/12/10 10:08:46;;;;;;;12.13;6.97;;;;;;;4.17;57.99;96343.34;4864067;29;20249;-76
2022/12/10 10:11:24;;;;;;;11.23;6.72;;;;;;;4.19;57.48;96351.63;4863407;29;20206;-77
2022/12/10 10:13:55;;;;;;;12.77;6.93;;;;;;;4.20;56.81;96346.25;4864489;28;20691;-76
2022/12/10 10:16:47;;;;;;;13.25;6.97;;;;;;;4.31;57.27;96355.00;4867450;28;20130;-76
2022/12/10 10:19:16;;;;;;;12.40;6.10;;;;;;;4.12;58.01;96346.59;4867139;29;20286;-76
2022/12/10 10:21:44;;;;;;;11.95;6.93;;;;;;;4.23;56.65;96353.53;4866990;29;20173;-76
2022/12/10 10:24:17;;;;;;;14.07;7.57;;;;;;;4.16;57.73;96342.53;4851400;29;20220;-76
2022/12/10 10:26:42;;;;;;;10.93;6.65;;;;;;;4.05;57.99;96351.06;4867344;29;20115;-76
2022/12/10 10:29:11;;;;;;;12.50;6.70;;;;;;;4.13;58.15;96348.94;4851143;29;20192;-76
2022/12/10 10:31:39;;;;;;;11.40;5.90;;;;;;;4.12;58.10;96344.78;4866804;29;20295;-76
2022/12/10 10:34:17;;;;;;;12.95;6.47;;;;;;;4.25;57.42;96348.13;4867111;29;20215;-76
2022/12/10 10:36:43;;;;;;;13.32;6.82;;;;;;;4.12;57.07;96339.63;4867138;29;20206;-76
2022/12/10 10:39:11;;;;;;;11.93;6.35;;;;;;;4.15;58.30;96346.13;4851147;29;20177;-75
2022/12/10 10:41:39;;;;;;;10.43;6.07;;;;;;;4.18;57.14;96353.44;4834917;29;20271;-76
2022/12/10 10:44:14;;;;;;;11.05;6.82;;;;;;;4.04;57.33;96347.69;4863370;29;20229;-76
2022/12/10 10:46:41;;;;;;;11.02;6.57;;;;;;;4.12;56.90;96344.00;4848050;29;20202;-75
2022/12/10 10:49:25;;;;;;;12.07;6.75;;;;;;;4.39;56.82;96346.16;4847784;29;20225;-76
2022/12/10 10:51:51;;;;;;;10.15;6.25;;;;;;;4.07;56.95;96344.66;4846372;29;20173;-77
2022/12/10 10:54:47;;;;;;;14.15;6.78;;;;;;;4.26;56.95;96357.44;4851144;29;20276;-76
2022/12/10 10:57:19;;;;;;;9.68;5.82;;;;;;;3.93;57.64;96359.53;4846534;29;20224;-76
2022/12/10 10:59:45;;;;;;;14.07;6.70;;;;;;;3.99;57.25;96357.09;4866811;28;20200;-76
2022/12/10 11:02:16;;;;;;;11.40;5.93;;;;;;;4.23;56.99;96358.69;4850485;29;20467;-77
2022/12/10 11:04:50;;;;;;;11.15;7.18;;;;;;;3.94;58.03;96348.25;4852925;29;20191;-76
2022/12/10 11:07:33;;;;;;;14.32;8.15;;;;;;;3.67;58.91;96360.72;4851329;29;20196;-76
2022/12/10 11:09:58;;;;;;;15.80;8.77;;;;;;;3.80;58.39;96357.16;4850372;29;20220;-76
2022/12/10 11:12:28;;;;;;;13.88;7.28;;;;;;;4.00;57.98;96359.44;4866457;29;20173;-76
2022/12/10 11:14:53;;;;;;;14.38;7.32;;;;;;;4.13;57.36;96359.25;4866484;29;20271;-76
2022/12/10 11:17:22;;;;;;;11.48;6.38;;;;;;;4.22;57.28;96354.53;4866348;29;20307;-76
2022/12/10 11:19:55;;;;;;;10.80;6.30;;;;;;;4.35;57.73;96355.31;4866318;29;20216;-76
2022/12/10 11:22:29;;;;;;;11.23;5.93;;;;;;;4.25;57.33;96361.81;4866368;29;20200;-76
2022/12/10 11:24:55;;;;;;;11.37;5.87;;;;;;;4.19;57.23;96351.63;4834390;29;20714;-76
2022/12/10 11:27:43;;;;;;;16.88;9.43;;;;;;;4.26;58.04;96358.22;4865712;29;20216;-76
2022/12/10 11:30:11;;;;;;;16.60;9.02;;;;;;;4.00;58.28;96358.66;4851946;29;20303;-76
2022/12/10 11:32:54;;;;;;;12.88;6.60;;;;;;;4.18;57.79;96350.84;4866126;29;20388;-76
2022/12/10 11:35:41;;;;;;;13.00;6.88;;;;;;;4.22;57.59;96351.19;4866452;29;20730;-76
2022/12/10 11:38:28;;;;;;;12.98;7.93;;;;;;;4.08;57.08;96350.63;4866130;29;21066;-76
2022/12/10 11:41:15;;;;;;;13.32;7.53;;;;;;;3.86;57.02;96358.88;4865695;29;20411;-77
2022/12/10 11:43:54;;;;;;;11.77;5.18;;;;;;;4.06;57.00;96362.91;4865450;28;20274;-76
2022/12/10 11:46:33;;;;;;;11.90;6.13;;;;;;;4.25;56.53;96354.09;4831803;29;20283;-76
2022/12/10 11:49:23;;;;;;;10.32;5.38;;;;;;;4.44;56.67;96348.84;4832852;29;20261;-77